Icarus — D5AX3 — position and weather

sailwx.info

Track history (hours):
 
Tides and Currents Weather Stations Pressure Air Temp Water Temp Dewpoint Dewpoint Depression Visibility Wind Speed Wind Dir Waves Ship Positions

Icarus

Last reported at 2015-May-24 08:26 UTC. Time now 2015-May-24 19:22 UTC.
Position N 31°50' E 034°39'.

Length 225 m; draft 12.8 m.

Type: Cargo ship. MMSI: 636015464.

Date/timePositionNaut miles runAvg speedWind from/ knotsBaromVisibWave heightAir tempDewpointWater temp
2015-May-24 08:26N 31°50' E 034°39'  
2015-May-19 10:33N 31°51' E 034°39'2 1.9
2015-May-19 09:31N 31°51' E 034°36'5 1.2
2015-May-19 05:32N 31°52' E 034°31'1111.5
2015-May-19 04:33N 31°56' E 034°18'1313.2
2015-May-19 03:33N 32°01' E 034°04'8912.7
2015-May-18 20:33N 32°27' E 032°23'1313.0
2015-May-18 19:33N 32°30' E 032°08'1312.8
2015-May-18 18:33N 32°33' E 031°54'1313.1
2015-May-18 17:33N 32°37' E 031°39'1313.2
2015-May-18 16:33N 32°40' E 031°23'2813.9
2015-May-18 14:31N 32°48' E 030°51'51712.9
2015-May-16 22:33N 35°03' E 020°49'3112.6
2015-May-16 20:04N 35°11' E 020°12'26512.9
2015-May-15 23:31N 36°20' E 014°58'1313.5
2015-May-15 22:33N 36°23' E 014°42'1413.6
2015-May-15 21:33N 36°27' E 014°26'1313.5
2015-May-15 20:33N 36°31' E 014°10'1413.6
2015-May-15 19:34N 36°35' E 013°54'1413.9
2015-May-15 18:33N 36°40' E 013°38'1413.7
2015-May-15 17:33N 36°45' E 013°22'1313.4
2015-May-15 16:33N 36°49' E 013°06'1313.1
2015-May-15 15:33N 36°54' E 012°50'1312.8
2015-May-15 14:33N 36°57' E 012°35'1312.6
2015-May-15 13:33N 37°01' E 012°20'1312.6
2015-May-15 12:33N 37°05' E 012°05'1312.9
2015-May-15 11:32N 37°09' E 011°49'1313.2
2015-May-15 10:33N 37°14' E 011°34'1313.4
2015-May-15 09:33N 37°18' E 011°18'1313.3
2015-May-15 08:33N 37°24' E 011°03'1413.5
2015-May-15 07:33N 37°27' E 010°46'  
Track history (hours):
 
Tides and Currents Weather Stations Pressure Air Temp Water Temp Dewpoint Dewpoint Depression Visibility Wind Speed Wind Dir Waves Ship Positions

Icarus

Last reported at 2015-May-24 08:26 UTC. Time now 2015-May-24 19:22 UTC.
Position N 31°50' E 034°39'.

Length 225 m; draft 12.8 m.

Type: Cargo ship. MMSI: 636015464.

Date/timePositionNaut miles runAvg speedWind from/ knotsBaromVisibWave heightAir tempDewpointWater temp
2015-May-24 08:26N 31°50' E 034°39'  
2015-May-19 10:33N 31°51' E 034°39'2 1.9
2015-May-19 09:31N 31°51' E 034°36'5 1.2
2015-May-19 05:32N 31°52' E 034°31'1111.5
2015-May-19 04:33N 31°56' E 034°18'1313.2
2015-May-19 03:33N 32°01' E 034°04'8912.7
2015-May-18 20:33N 32°27' E 032°23'1313.0
2015-May-18 19:33N 32°30' E 032°08'1312.8
2015-May-18 18:33N 32°33' E 031°54'1313.1
2015-May-18 17:33N 32°37' E 031°39'1313.2
2015-May-18 16:33N 32°40' E 031°23'2813.9
2015-May-18 14:31N 32°48' E 030°51'51712.9
2015-May-16 22:33N 35°03' E 020°49'3112.6
2015-May-16 20:04N 35°11' E 020°12'26512.9
2015-May-15 23:31N 36°20' E 014°58'1313.5
2015-May-15 22:33N 36°23' E 014°42'1413.6
2015-May-15 21:33N 36°27' E 014°26'1313.5
2015-May-15 20:33N 36°31' E 014°10'1413.6
2015-May-15 19:34N 36°35' E 013°54'1413.9
2015-May-15 18:33N 36°40' E 013°38'1413.7
2015-May-15 17:33N 36°45' E 013°22'1313.4
2015-May-15 16:33N 36°49' E 013°06'1313.1
2015-May-15 15:33N 36°54' E 012°50'1312.8
2015-May-15 14:33N 36°57' E 012°35'1312.6
2015-May-15 13:33N 37°01' E 012°20'1312.6
2015-May-15 12:33N 37°05' E 012°05'1312.9
2015-May-15 11:32N 37°09' E 011°49'1313.2
2015-May-15 10:33N 37°14' E 011°34'1313.4
2015-May-15 09:33N 37°18' E 011°18'1313.3
2015-May-15 08:33N 37°24' E 011°03'1413.5
2015-May-15 07:33N 37°27' E 010°46'  

Dump ship's entire track history